Time;durP1;ratioP1;P1;durP2;ratioP2;P2;SDS_P1;SDS_P2;PMS_P1;PMS_P2;Temp;Humidity;BMP_temperature;BMP_pressure;BME280_temperature;BME280_humidity;BME280_pressure;Samples;Min_cycle;Max_cycle;Signal;HPM_P1;HPM_P2
2022/01/26 00:00:57;;;;;;;10.48;5.60;;;;;;;;;;5038780;28;20025;-63
2022/01/26 00:06:14;;;;;;;10.90;6.72;;;;;;;;;;5038132;28;20041;-67
2022/01/26 00:08:40;;;;;;;10.60;6.20;;;;;;;;;;5046847;28;20137;-66
2022/01/26 00:11:06;;;;;;;9.73;6.50;;;;;;;;;;5051485;28;20025;-63
2022/01/26 00:13:33;;;;;;;14.10;6.47;;;;;;;;;;5051638;28;20017;-63
2022/01/26 00:16:02;;;;;;;11.32;6.50;;;;;;;;;;5051787;28;20047;-65
2022/01/26 00:18:31;;;;;;;9.30;5.97;;;;;;;;;;5036532;28;20076;-65
2022/01/26 00:21:06;;;;;;;8.68;5.85;;;;;;;;;;5031605;28;20160;-64
2022/01/26 00:29:14;;;;;;;11.48;6.97;;;;;;;;;;5050776;28;20033;-63
2022/01/26 00:40:04;;;;;;;11.20;7.00;;;;;;;;;;5051443;28;20087;-65
2022/01/26 00:42:36;;;;;;;9.57;6.18;;;;;;;;;;5050561;28;20025;-67
2022/01/26 00:45:02;;;;;;;10.70;6.57;;;;;;;;;;5050060;28;20021;-65
2022/01/26 00:47:28;;;;;;;9.90;6.53;;;;;;;;;;5051046;28;20025;-63
2022/01/26 00:49:59;;;;;;;9.70;6.40;;;;;;;;;;5050749;28;20032;-64
2022/01/26 00:52:38;;;;;;;11.57;6.55;;;;;;;;;;5042665;28;20037;-63
2022/01/26 00:55:06;;;;;;;11.70;5.93;;;;;;;;;;5046604;28;20021;-64
2022/01/26 00:57:32;;;;;;;11.95;6.93;;;;;;;;;;5052593;28;20156;-62
2022/01/26 00:59:59;;;;;;;12.18;6.72;;;;;;;;;;5030954;28;20526;-65
2022/01/26 01:02:25;;;;;;;8.80;6.20;;;;;;;;;;5029453;28;20026;-65
2022/01/26 01:04:52;;;;;;;10.48;6.75;;;;;;;;;;5030461;28;20112;-63
2022/01/26 01:07:21;;;;;;;9.27;6.82;;;;;;;;;;5030793;28;20040;-66
2022/01/26 01:09:47;;;;;;;10.73;6.70;;;;;;;;;;5031389;28;20029;-63
2022/01/26 01:12:13;;;;;;;10.10;6.80;;;;;;;;;;5029531;28;20354;-62
2022/01/26 01:14:42;;;;;;;11.73;6.85;;;;;;;;;;5031021;28;20026;-63
2022/01/26 01:17:12;;;;;;;10.52;6.72;;;;;;;;;;5031047;28;20018;-63
2022/01/26 01:19:52;;;;;;;10.30;6.80;;;;;;;;;;5033082;28;20420;-63
2022/01/26 01:22:45;;;;;;;21.30;7.15;;;;;;;;;;5034803;28;20060;-63
2022/01/26 01:30:29;;;;;;;10.18;6.60;;;;;;;;;;5035280;28;20034;-63
2022/01/26 01:33:09;;;;;;;;;;;;;;;;;;5035741;28;20072;-62
2022/01/26 01:35:39;;;;;;;10.05;6.38;;;;;;;;;;5033910;28;19912;-63
2022/01/26 01:38:10;;;;;;;9.25;6.15;;;;;;;;;;5034856;28;20013;-64
2022/01/26 01:40:38;;;;;;;10.50;6.88;;;;;;;;;;5034990;28;20100;-62
2022/01/26 01:43:05;;;;;;;11.05;6.57;;;;;;;;;;5034884;28;20052;-66
2022/01/26 01:45:35;;;;;;;10.85;6.07;;;;;;;;;;5034992;28;20025;-63
2022/01/26 01:48:01;;;;;;;10.05;6.60;;;;;;;;;;5034938;28;20025;-64
2022/01/26 01:50:27;;;;;;;11.18;6.47;;;;;;;;;;5034792;28;20480;-63
2022/01/26 01:53:00;;;;;;;8.50;5.88;;;;;;;;;;5034733;28;20028;-64
2022/01/26 01:55:31;;;;;;;11.88;6.38;;;;;;;;;;5034822;28;20029;-65
2022/01/26 01:57:58;;;;;;;11.00;6.10;;;;;;;;;;5042707;28;20017;-64
2022/01/26 02:00:24;;;;;;;9.52;6.22;;;;;;;;;;5054609;28;20032;-66
2022/01/26 02:02:50;;;;;;;11.05;7.35;;;;;;;;;;5054649;28;20411;-63
2022/01/26 02:05:17;;;;;;;9.98;6.30;;;;;;;;;;5054129;28;20132;-67
2022/01/26 02:07:43;;;;;;;11.32;7.35;;;;;;;;;;5050838;28;20473;-66
2022/01/26 02:10:10;;;;;;;10.77;6.68;;;;;;;;;;5033960;28;20484;-63
2022/01/26 02:12:40;;;;;;;9.00;5.97;;;;;;;;;;5033892;28;20021;-63
2022/01/26 02:15:14;;;;;;;10.82;5.93;;;;;;;;;;5033668;28;20108;-64
2022/01/26 03:00:59;;;;;;;10.15;6.60;;;;;;;;;;5053534;28;20028;-63
2022/01/26 03:03:31;;;;;;;10.20;6.32;;;;;;;;;;5053251;28;20020;-65
2022/01/26 03:06:05;;;;;;;9.10;6.30;;;;;;;;;;5053373;28;20463;-63
2022/01/26 03:08:39;;;;;;;11.05;7.18;;;;;;;;;;5053130;28;20032;-63
2022/01/26 03:11:09;;;;;;;10.00;6.90;;;;;;;;;;5044940;28;20029;-66
2022/01/26 03:13:38;;;;;;;10.85;7.55;;;;;;;;;;5032480;28;20018;-64
2022/01/26 03:16:12;;;;;;;11.90;7.45;;;;;;;;;;5032474;28;20144;-66
2022/01/26 03:19:15;;;;;;;11.10;7.38;;;;;;;;;;5032685;28;20124;-63
2022/01/26 03:30:33;;;;;;;12.20;8.10;;;;;;;;;;5041760;28;20083;-63
2022/01/26 03:33:45;;;;;;;12.48;8.25;;;;;;;;;;5031990;28;20029;-63
2022/01/26 03:38:08;;;;;;;12.18;8.32;;;;;;;;;;5032721;28;20025;-63
2022/01/26 03:40:37;;;;;;;14.43;9.15;;;;;;;;;;5032642;28;20154;-63
2022/01/26 03:43:05;;;;;;;15.18;9.10;;;;;;;;;;5031991;28;20018;-64
2022/01/26 03:45:31;;;;;;;12.98;8.63;;;;;;;;;;5032601;28;20535;-64
2022/01/26 03:47:58;;;;;;;12.18;7.90;;;;;;;;;;5032495;28;20037;-63
2022/01/26 03:50:24;;;;;;;13.27;9.00;;;;;;;;;;5032358;28;20029;-65
2022/01/26 03:52:50;;;;;;;12.10;8.27;;;;;;;;;;5032475;28;20048;-63
2022/01/26 03:55:17;;;;;;;13.20;8.77;;;;;;;;;;5032061;28;20020;-64
2022/01/26 03:57:43;;;;;;;14.25;9.05;;;;;;;;;;5038032;28;20492;-63
2022/01/26 04:00:09;;;;;;;14.98;9.68;;;;;;;;;;5051961;28;20048;-64
2022/01/26 04:02:35;;;;;;;13.80;9.32;;;;;;;;;;5051905;28;20017;-62
2022/01/26 04:05:06;;;;;;;12.60;8.50;;;;;;;;;;5051890;28;20025;-63
2022/01/26 04:07:32;;;;;;;13.35;8.30;;;;;;;;;;5051973;28;20556;-63
2022/01/26 04:10:07;;;;;;;11.68;8.07;;;;;;;;;;5052166;28;20037;-64
2022/01/26 04:12:35;;;;;;;14.18;8.77;;;;;;;;;;5052057;28;20017;-63
2022/01/26 04:15:10;;;;;;;14.88;9.02;;;;;;;;;;5051809;28;20021;-63
2022/01/26 04:17:36;;;;;;;12.30;8.60;;;;;;;;;;5052092;28;20013;-65
2022/01/26 04:20:02;;;;;;;11.68;7.78;;;;;;;;;;5051607;28;20045;-63
2022/01/26 04:22:37;;;;;;;14.80;9.15;;;;;;;;;;5051940;28;20025;-64
2022/01/26 04:25:05;;;;;;;12.68;8.52;;;;;;;;;;5051559;28;20037;-65
2022/01/26 04:27:37;;;;;;;13.30;8.40;;;;;;;;;;5051532;28;20412;-63
2022/01/26 04:30:04;;;;;;;12.95;8.50;;;;;;;;;;5051918;28;20116;-64
2022/01/26 04:32:30;;;;;;;13.07;9.00;;;;;;;;;;5052004;28;20021;-64
2022/01/26 04:34:57;;;;;;;14.50;8.98;;;;;;;;;;5051801;28;20537;-64
2022/01/26 04:37:44;;;;;;;13.38;8.95;;;;;;;;;;5051664;28;20025;-64
2022/01/26 04:40:13;;;;;;;15.38;9.88;;;;;;;;;;5051825;28;20048;-63
2022/01/26 04:45:10;;;;;;;14.82;9.88;;;;;;;;;;5051422;28;20031;-65
2022/01/26 04:47:36;;;;;;;14.70;8.40;;;;;;;;;;5051105;28;20021;-63
2022/01/26 04:50:04;;;;;;;14.48;9.68;;;;;;;;;;5051005;28;20556;-62
2022/01/26 04:52:30;;;;;;;15.23;9.43;;;;;;;;;;5051476;28;20100;-64
2022/01/26 04:54:56;;;;;;;14.27;9.38;;;;;;;;;;5055199;28;20083;-65
2022/01/26 04:57:22;;;;;;;14.77;9.60;;;;;;;;;;5050023;28;20021;-63
2022/01/26 04:59:48;;;;;;;15.18;9.90;;;;;;;;;;5055066;28;20100;-65
2022/01/26 05:02:14;;;;;;;13.68;9.45;;;;;;;;;;5054967;28;20021;-62
2022/01/26 05:04:40;;;;;;;14.38;9.38;;;;;;;;;;5054960;28;20029;-64
2022/01/26 05:07:06;;;;;;;13.65;9.15;;;;;;;;;;5054865;28;20025;-62
2022/01/26 05:09:32;;;;;;;12.73;8.23;;;;;;;;;;5054799;28;20116;-64
2022/01/26 05:12:00;;;;;;;12.85;8.27;;;;;;;;;;5055064;28;20017;-64
2022/01/26 05:14:26;;;;;;;13.45;9.27;;;;;;;;;;5055222;28;20056;-62
2022/01/26 05:16:52;;;;;;;14.13;8.70;;;;;;;;;;5053969;28;20117;-63
2022/01/26 05:19:18;;;;;;;13.88;8.13;;;;;;;;;;5055187;28;20476;-63
2022/01/26 05:21:44;;;;;;;11.15;7.50;;;;;;;;;;5054912;28;20079;-62
2022/01/26 05:24:10;;;;;;;15.13;9.40;;;;;;;;;;5055104;28;20021;-62
2022/01/26 05:26:38;;;;;;;10.82;7.60;;;;;;;;;;5054818;28;20056;-63
2022/01/26 05:29:04;;;;;;;12.57;8.07;;;;;;;;;;5054762;28;20025;-65
2022/01/26 05:31:30;;;;;;;10.75;7.47;;;;;;;;;;5054568;28;20074;-63
2022/01/26 05:33:56;;;;;;;13.00;7.53;;;;;;;;;;5054285;28;20021;-64
2022/01/26 05:36:22;;;;;;;11.25;7.63;;;;;;;;;;5054380;28;20025;-64
2022/01/26 05:38:48;;;;;;;12.40;7.28;;;;;;;;;;5054255;28;20025;-63
2022/01/26 05:41:14;;;;;;;10.73;7.18;;;;;;;;;;5054128;28;20045;-64
2022/01/26 05:43:41;;;;;;;12.40;7.03;;;;;;;;;;5054165;28;20033;-63
2022/01/26 05:46:16;;;;;;;11.90;7.43;;;;;;;;;;5054236;28;20013;-65
2022/01/26 05:48:45;;;;;;;9.95;6.90;;;;;;;;;;5054285;28;20376;-62
2022/01/26 05:51:12;;;;;;;10.82;7.50;;;;;;;;;;5054184;28;20037;-67
2022/01/26 05:53:39;;;;;;;11.35;6.90;;;;;;;;;;5054080;28;20032;-63
2022/01/26 05:56:05;;;;;;;11.02;7.10;;;;;;;;;;5054293;28;20557;-64
2022/01/26 05:58:31;;;;;;;12.52;8.45;;;;;;;;;;5053610;28;20029;-63
2022/01/26 06:00:59;;;;;;;9.50;6.50;;;;;;;;;;5053673;28;20472;-62
2022/01/26 06:03:25;;;;;;;9.98;6.60;;;;;;;;;;5053854;28;20083;-65
2022/01/26 06:05:53;;;;;;;9.38;6.35;;;;;;;;;;5052888;28;20025;-62
2022/01/26 06:08:20;;;;;;;8.82;6.53;;;;;;;;;;5053646;28;20036;-63
2022/01/26 06:10:46;;;;;;;9.40;6.07;;;;;;;;;;5053633;28;20033;-63
2022/01/26 06:13:12;;;;;;;10.45;6.57;;;;;;;;;;5053743;28;20025;-63
2022/01/26 06:15:38;;;;;;;9.10;6.28;;;;;;;;;;5053402;28;20021;-64
2022/01/26 06:18:04;;;;;;;11.70;6.35;;;;;;;;;;5052568;28;20403;-63
2022/01/26 06:20:30;;;;;;;9.52;6.10;;;;;;;;;;5053470;28;20056;-66
2022/01/26 06:22:56;;;;;;;8.98;6.00;;;;;;;;;;5052147;28;20032;-62
2022/01/26 06:25:22;;;;;;;9.50;6.50;;;;;;;;;;5053238;28;20029;-63
2022/01/26 06:27:51;;;;;;;9.90;6.88;;;;;;;;;;5053314;28;20028;-63
2022/01/26 06:30:17;;;;;;;8.77;6.00;;;;;;;;;;5053210;28;20033;-65
2022/01/26 06:32:44;;;;;;;8.30;5.95;;;;;;;;;;5053216;28;20094;-64
2022/01/26 06:35:11;;;;;;;8.98;5.90;;;;;;;;;;5053727;28;20096;-63
2022/01/26 06:37:38;;;;;;;8.77;5.82;;;;;;;;;;5053529;28;20079;-63
2022/01/26 06:40:04;;;;;;;9.23;6.10;;;;;;;;;;5053671;28;20047;-68
2022/01/26 06:42:37;;;;;;;8.35;5.57;;;;;;;;;;5053770;28;20036;-62
2022/01/26 06:49:59;;;;;;;9.00;5.70;;;;;;;;;;5053495;28;20041;-63
2022/01/26 06:52:25;;;;;;;10.25;5.63;;;;;;;;;;5053349;28;20017;-65
2022/01/26 06:54:51;;;;;;;8.65;5.22;;;;;;;;;;5053241;28;20097;-63
2022/01/26 06:57:17;;;;;;;10.38;6.20;;;;;;;;;;5051139;28;20028;-62
2022/01/26 06:59:43;;;;;;;7.57;5.55;;;;;;;;;;5053202;28;20029;-64
2022/01/26 07:02:09;;;;;;;8.88;5.70;;;;;;;;;;5053351;28;20032;-63
2022/01/26 07:04:35;;;;;;;7.10;5.20;;;;;;;;;;5052975;28;20070;-62
2022/01/26 07:07:01;;;;;;;8.68;5.55;;;;;;;;;;5053023;28;20017;-61
2022/01/26 07:09:27;;;;;;;7.47;5.05;;;;;;;;;;5052730;28;20036;-60
2022/01/26 07:11:53;;;;;;;9.40;5.70;;;;;;;;;;5052838;28;20031;-60
2022/01/26 07:19:46;;;;;;;8.50;5.57;;;;;;;;;;5052886;28;20017;-60
2022/01/26 07:19:56;;;;;;;8.77;5.80;;;;;;;;;;5052371;28;20039;-60
2022/01/26 07:22:22;;;;;;;8.90;5.40;;;;;;;;;;5052584;28;20021;-60
2022/01/26 07:24:48;;;;;;;9.27;5.60;;;;;;;;;;5052674;28;20028;-62
2022/01/26 07:27:15;;;;;;;9.65;5.45;;;;;;;;;;5052819;28;20091;-61
2022/01/26 07:29:41;;;;;;;8.95;5.18;;;;;;;;;;5052717;28;20112;-61
2022/01/26 07:32:08;;;;;;;6.97;5.05;;;;;;;;;;5052667;28;20104;-64
2022/01/26 07:34:34;;;;;;;7.88;5.47;;;;;;;;;;5052483;28;20028;-62
2022/01/26 07:37:05;;;;;;;8.05;4.82;;;;;;;;;;5052454;28;20443;-62
2022/01/26 07:39:43;;;;;;;6.82;4.63;;;;;;;;;;5052633;28;20444;-61
2022/01/26 07:42:10;;;;;;;7.63;5.20;;;;;;;;;;5052596;28;20040;-63
2022/01/26 07:44:36;;;;;;;6.60;4.38;;;;;;;;;;5052651;28;20024;-64
2022/01/26 07:47:02;;;;;;;6.63;4.28;;;;;;;;;;5052226;28;20484;-62
2022/01/26 07:49:29;;;;;;;7.13;4.80;;;;;;;;;;5052319;28;20047;-61
2022/01/26 07:51:55;;;;;;;7.15;4.43;;;;;;;;;;5052404;28;20029;-61
2022/01/26 07:54:22;;;;;;;6.78;4.47;;;;;;;;;;5052284;28;20025;-62
2022/01/26 07:56:48;;;;;;;7.38;4.75;;;;;;;;;;5051698;28;20021;-64
2022/01/26 07:59:14;;;;;;;6.93;4.55;;;;;;;;;;5051640;28;20024;-63
2022/01/26 08:01:40;;;;;;;7.82;4.60;;;;;;;;;;5051681;28;20020;-60
2022/01/26 08:04:06;;;;;;;7.28;4.63;;;;;;;;;;5052025;28;20025;-61
2022/01/26 08:06:32;;;;;;;6.63;4.53;;;;;;;;;;5052067;28;20056;-60
2022/01/26 08:08:58;;;;;;;6.65;4.50;;;;;;;;;;5051980;28;20033;-60
2022/01/26 08:11:24;;;;;;;8.10;4.65;;;;;;;;;;5052060;28;20036;-60
2022/01/26 08:13:51;;;;;;;7.45;4.45;;;;;;;;;;5051781;28;20407;-60
2022/01/26 08:16:17;;;;;;;6.97;4.63;;;;;;;;;;5051247;28;20043;-64
2022/01/26 08:18:43;;;;;;;7.97;4.53;;;;;;;;;;5051889;28;20021;-60
2022/01/26 08:21:10;;;;;;;5.93;4.10;;;;;;;;;;5051538;28;20048;-63
2022/01/26 08:23:37;;;;;;;6.88;4.25;;;;;;;;;;5051735;28;20036;-62
2022/01/26 08:26:03;;;;;;;7.70;4.43;;;;;;;;;;5049930;28;20499;-64
2022/01/26 08:28:39;;;;;;;5.90;3.70;;;;;;;;;;5049400;28;20044;-60
2022/01/26 08:31:05;;;;;;;6.95;4.45;;;;;;;;;;5051004;28;20108;-62
2022/01/26 08:33:31;;;;;;;7.88;3.95;;;;;;;;;;5051312;28;20074;-60
2022/01/26 08:35:57;;;;;;;6.60;4.00;;;;;;;;;;5051158;28;20051;-61
2022/01/26 08:38:24;;;;;;;5.43;3.60;;;;;;;;;;5051409;28;20047;-63
2022/01/26 08:40:50;;;;;;;5.82;3.80;;;;;;;;;;5051608;28;20013;-62
2022/01/26 08:43:17;;;;;;;6.20;3.85;;;;;;;;;;5051520;28;20025;-64
2022/01/26 08:45:43;;;;;;;4.97;3.35;;;;;;;;;;5051499;28;20025;-67
2022/01/26 08:48:09;;;;;;;6.60;4.03;;;;;;;;;;5051663;28;20381;-64
2022/01/26 08:50:35;;;;;;;6.95;4.30;;;;;;;;;;5050539;28;20032;-62
2022/01/26 08:53:01;;;;;;;6.60;3.88;;;;;;;;;;5051659;28;20023;-65
2022/01/26 08:55:27;;;;;;;6.85;3.85;;;;;;;;;;5051672;28;20067;-64
2022/01/26 08:57:53;;;;;;;6.00;3.95;;;;;;;;;;5044034;28;20022;-64
2022/01/26 09:00:20;;;;;;;5.88;3.45;;;;;;;;;;5031664;28;20049;-62
2022/01/26 09:02:47;;;;;;;6.22;3.80;;;;;;;;;;5031100;28;20022;-63
2022/01/26 09:05:13;;;;;;;5.82;3.65;;;;;;;;;;5031017;28;20052;-62
2022/01/26 09:07:43;;;;;;;5.97;3.80;;;;;;;;;;5029828;28;20025;-67
2022/01/26 09:10:09;;;;;;;6.07;4.05;;;;;;;;;;5031076;28;20026;-64
2022/01/26 09:12:38;;;;;;;6.15;3.80;;;;;;;;;;5030898;28;20091;-63
2022/01/26 09:15:06;;;;;;;6.05;4.07;;;;;;;;;;5030885;28;20022;-65
2022/01/26 09:17:34;;;;;;;7.15;4.28;;;;;;;;;;5031225;28;20021;-65
2022/01/26 09:20:01;;;;;;;23.17;4.63;;;;;;;;;;5031466;28;20121;-62
2022/01/26 09:22:27;;;;;;;7.65;3.67;;;;;;;;;;5030786;28;20499;-63
2022/01/26 09:24:53;;;;;;;8.27;3.83;;;;;;;;;;5047432;28;20029;-64
2022/01/26 09:27:20;;;;;;;10.88;4.25;;;;;;;;;;5047823;28;20021;-63
2022/01/26 09:29:46;;;;;;;9.32;4.03;;;;;;;;;;5031731;28;20034;-64
2022/01/26 09:32:13;;;;;;;7.78;4.50;;;;;;;;;;5031015;28;20017;-63
2022/01/26 09:34:40;;;;;;;8.60;3.85;;;;;;;;;;5031384;28;20100;-63
2022/01/26 09:37:07;;;;;;;7.03;3.50;;;;;;;;;;5031194;28;20036;-63
2022/01/26 09:39:34;;;;;;;19.30;8.07;;;;;;;;;;5031185;28;20374;-63
2022/01/26 09:42:00;;;;;;;18.63;7.07;;;;;;;;;;5034663;28;20076;-64
2022/01/26 09:44:27;;;;;;;12.18;5.88;;;;;;;;;;5034966;28;20025;-63
2022/01/26 09:46:53;;;;;;;9.48;4.75;;;;;;;;;;5034940;28;20075;-63
2022/01/26 09:49:20;;;;;;;12.65;4.90;;;;;;;;;;5034395;28;20042;-65
2022/01/26 09:51:49;;;;;;;10.02;4.85;;;;;;;;;;5034634;28;20029;-64
2022/01/26 09:54:17;;;;;;;11.20;4.75;;;;;;;;;;5034381;28;20021;-62
2022/01/26 09:56:46;;;;;;;10.32;5.20;;;;;;;;;;5034515;28;20060;-63
2022/01/26 09:59:12;;;;;;;7.53;4.35;;;;;;;;;;5070532;28;20017;-64
2022/01/26 10:01:40;;;;;;;11.10;4.55;;;;;;;;;;5073943;28;20472;-63
2022/01/26 10:04:06;;;;;;;8.55;4.55;;;;;;;;;;5074473;28;20071;-64
2022/01/26 10:06:33;;;;;;;20.85;4.97;;;;;;;;;;5073969;28;20055;-63
2022/01/26 10:09:27;;;;;;;9.55;4.70;;;;;;;;;;5074136;28;20107;-64
2022/01/26 10:17:34;;;;;;;8.40;4.25;;;;;;;;;;5073965;28;20106;-60
2022/01/26 10:20:03;;;;;;;7.28;3.53;;;;;;;;;;5074123;28;20561;-60
2022/01/26 10:22:31;;;;;;;6.95;3.70;;;;;;;;;;5074362;28;20017;-60
2022/01/26 10:25:11;;;;;;;8.43;3.60;;;;;;;;;;5058779;28;20108;-61
2022/01/26 10:27:41;;;;;;;10.73;3.83;;;;;;;;;;5046927;28;20025;-62
2022/01/26 10:30:08;;;;;;;6.97;3.60;;;;;;;;;;5051874;28;20036;-60
2022/01/26 10:32:35;;;;;;;8.05;4.30;;;;;;;;;;5033081;28;20022;-61
2022/01/26 10:35:02;;;;;;;7.32;4.00;;;;;;;;;;5032944;28;20098;-62
2022/01/26 10:37:29;;;;;;;7.78;3.50;;;;;;;;;;5033694;28;20026;-60
2022/01/26 10:40:08;;;;;;;8.05;3.80;;;;;;;;;;5032940;28;20071;-61
2022/01/26 10:42:34;;;;;;;6.72;3.90;;;;;;;;;;5032884;28;20013;-61
2022/01/26 10:45:11;;;;;;;10.02;4.18;;;;;;;;;;5032794;28;20551;-61
2022/01/26 10:47:41;;;;;;;6.55;3.60;;;;;;;;;;5048685;28;20024;-63
2022/01/26 10:50:46;;;;;;;10.60;3.97;;;;;;;;;;5032502;28;20040;-61
2022/01/26 10:53:16;;;;;;;6.78;3.60;;;;;;;;;;5037938;28;20018;-61
2022/01/26 10:55:43;;;;;;;6.82;3.78;;;;;;;;;;5032766;28;20542;-61
2022/01/26 10:58:09;;;;;;;7.57;3.45;;;;;;;;;;5051794;28;20107;-61
2022/01/26 11:00:36;;;;;;;7.03;3.97;;;;;;;;;;5072536;28;20028;-61
2022/01/26 11:03:03;;;;;;;7.63;4.10;;;;;;;;;;5071018;28;20028;-61
2022/01/26 11:05:29;;;;;;;6.18;3.78;;;;;;;;;;5059161;28;20075;-61
2022/01/26 11:07:56;;;;;;;8.13;3.53;;;;;;;;;;5051027;28;20025;-64
2022/01/26 11:10:31;;;;;;;7.03;3.53;;;;;;;;;;5044550;28;20032;-63
2022/01/26 11:12:57;;;;;;;6.75;3.80;;;;;;;;;;5032382;28;20026;-61
2022/01/26 11:15:23;;;;;;;5.22;3.65;;;;;;;;;;5031834;28;20052;-64
2022/01/26 11:17:51;;;;;;;7.65;3.40;;;;;;;;;;5030692;28;20427;-60
2022/01/26 11:20:18;;;;;;;5.43;3.53;;;;;;;;;;5040029;28;20496;-65
2022/01/26 11:22:51;;;;;;;8.18;3.55;;;;;;;;;;5052031;28;20550;-64
2022/01/26 11:25:18;;;;;;;5.85;2.95;;;;;;;;;;5052061;28;20484;-63
2022/01/26 11:27:44;;;;;;;6.65;3.50;;;;;;;;;;5040964;28;20033;-62
2022/01/26 11:30:19;;;;;;;6.78;3.95;;;;;;;;;;5031874;28;20030;-61
2022/01/26 11:32:58;;;;;;;5.35;3.22;;;;;;;;;;5031770;28;20477;-61
2022/01/26 11:35:26;;;;;;;5.05;3.00;;;;;;;;;;5031810;28;20538;-61
2022/01/26 11:38:11;;;;;;;6.68;3.65;;;;;;;;;;5032887;28;20021;-61
2022/01/26 11:46:28;;;;;;;4.95;3.25;;;;;;;;;;5031774;28;20068;-60
2022/01/26 11:49:05;;;;;;;5.45;3.10;;;;;;;;;;5049568;28;20041;-62
2022/01/26 11:51:49;;;;;;;6.43;3.40;;;;;;;;;;5051630;28;20116;-61
2022/01/26 11:54:17;;;;;;;5.35;3.13;;;;;;;;;;5055489;28;20017;-64
2022/01/26 11:57:02;;;;;;;5.60;3.03;;;;;;;;;;5056705;28;20043;-61
2022/01/26 11:59:32;;;;;;;5.05;2.95;;;;;;;;;;5060445;28;20454;-62
2022/01/26 12:02:02;;;;;;;5.25;2.90;;;;;;;;;;5045056;28;20083;-60
2022/01/26 12:04:31;;;;;;;4.72;2.70;;;;;;;;;;5031074;28;20022;-60
2022/01/26 12:07:09;;;;;;;4.75;2.70;;;;;;;;;;5031329;28;20084;-61
2022/01/26 12:09:35;;;;;;;5.82;3.22;;;;;;;;;;5031326;28;20033;-61
2022/01/26 12:12:03;;;;;;;5.28;3.03;;;;;;;;;;5037314;28;20051;-63
2022/01/26 12:14:30;;;;;;;4.80;2.63;;;;;;;;;;5045381;28;20616;-60
2022/01/26 12:16:58;;;;;;;4.50;2.70;;;;;;;;;;5031381;28;20032;-61
2022/01/26 12:19:46;;;;;;;11.93;3.13;;;;;;;;;;5031328;28;20022;-60
2022/01/26 12:36:25;;;;;;;250.63;76.95;;;;;;;;;;5031603;28;20080;-62
2022/01/26 12:39:02;;;;;;;156.07;50.75;;;;;;;;;;5030995;28;20072;-60
2022/01/26 12:41:37;;;;;;;164.10;47.72;;;;;;;;;;5030868;28;20195;-62
2022/01/26 12:44:10;;;;;;;136.30;43.15;;;;;;;;;;5030998;28;20017;-61
2022/01/26 12:46:37;;;;;;;147.35;40.70;;;;;;;;;;5030893;28;20025;-60
2022/01/26 12:49:08;;;;;;;112.32;37.08;;;;;;;;;;5031197;28;20053;-63
2022/01/26 12:51:44;;;;;;;110.85;35.83;;;;;;;;;;5031574;28;20497;-60
2022/01/26 12:54:10;;;;;;;109.95;33.53;;;;;;;;;;5031050;28;20029;-61
2022/01/26 12:56:37;;;;;;;380.55;167.15;;;;;;;;;;5030772;28;20420;-60
2022/01/26 12:59:05;;;;;;;376.63;178.05;;;;;;;;;;5064681;28;20060;-62
2022/01/26 13:01:31;;;;;;;252.48;110.20;;;;;;;;;;5070730;28;20070;-61
2022/01/26 13:04:02;;;;;;;281.70;118.55;;;;;;;;;;5070916;28;20032;-62
2022/01/26 13:06:34;;;;;;;223.73;99.20;;;;;;;;;;5070822;28;20039;-61
2022/01/26 13:09:02;;;;;;;209.77;88.88;;;;;;;;;;5059406;28;20448;-63
2022/01/26 13:11:29;;;;;;;200.25;85.47;;;;;;;;;;5030800;28;20048;-61
2022/01/26 13:14:12;;;;;;;184.55;77.70;;;;;;;;;;5031712;28;20026;-61
2022/01/26 13:16:40;;;;;;;167.52;71.22;;;;;;;;;;5034526;28;20080;-65
2022/01/26 13:24:52;;;;;;;145.45;60.38;;;;;;;;;;5067524;28;20033;-65
2022/01/26 13:30:04;;;;;;;117.55;51.90;;;;;;;;;;5074519;28;20040;-65
2022/01/26 13:38:09;;;;;;;104.80;44.45;;;;;;;;;;5074567;28;20020;-64
2022/01/26 13:51:43;;;;;;;80.90;33.65;;;;;;;;;;5073985;28;20029;-65
2022/01/26 14:01:48;;;;;;;62.03;27.90;;;;;;;;;;5053834;28;20022;-62
2022/01/26 14:04:15;;;;;;;56.33;25.02;;;;;;;;;;5053510;28;20674;-62
2022/01/26 14:06:42;;;;;;;50.83;23.63;;;;;;;;;;5053957;28;20468;-61
2022/01/26 14:09:08;;;;;;;48.90;22.02;;;;;;;;;;5054109;28;20040;-62
2022/01/26 14:11:34;;;;;;;53.75;21.70;;;;;;;;;;5054168;28;20017;-62
2022/01/26 14:14:01;;;;;;;45.83;21.10;;;;;;;;;;5054168;28;20037;-61
2022/01/26 14:16:32;;;;;;;46.70;19.70;;;;;;;;;;5044781;28;20017;-62
2022/01/26 14:19:07;;;;;;;38.60;18.23;;;;;;;;;;5039949;28;20518;-63
2022/01/26 14:26:32;;;;;;;33.25;16.23;;;;;;;;;;5033133;28;20030;-62
2022/01/26 14:28:59;;;;;;;32.22;15.25;;;;;;;;;;5033356;28;20508;-62
2022/01/26 14:31:50;;;;;;;31.27;14.60;;;;;;;;;;5033796;28;20040;-62
2022/01/26 14:34:52;;;;;;;30.63;13.25;;;;;;;;;;5033049;28;20095;-63
2022/01/26 14:40:34;;;;;;;26.20;12.75;;;;;;;;;;5053306;28;20040;-61
2022/01/26 15:10:02;;;;;;;15.20;7.70;;;;;;;;;;5062840;28;20402;-62
2022/01/26 15:53:02;;;;;;;9.52;4.93;;;;;;;;;;5032433;28;20024;-63
2022/01/26 16:17:01;;;;;;;7.28;4.50;;;;;;;;;;5051640;28;20120;-61
2022/01/26 18:49:25;;;;;;;9.52;4.95;;;;;;;;;;5033209;28;20103;-66
2022/01/26 18:51:53;;;;;;;11.70;5.20;;;;;;;;;;5033140;28;20078;-65
2022/01/26 18:54:20;;;;;;;10.55;4.80;;;;;;;;;;5033167;28;20029;-64
2022/01/26 18:56:46;;;;;;;22.67;5.05;;;;;;;;;;5033075;28;20033;-65
2022/01/26 18:59:13;;;;;;;8.88;4.55;;;;;;;;;;5049984;28;20029;-64
2022/01/26 19:01:39;;;;;;;10.52;6.00;;;;;;;;;;5051636;28;20020;-64
2022/01/26 19:04:05;;;;;;;9.80;5.00;;;;;;;;;;5052721;28;20492;-65
2022/01/26 19:06:32;;;;;;;9.70;4.53;;;;;;;;;;5052695;28;20063;-64
2022/01/26 19:08:58;;;;;;;8.18;4.85;;;;;;;;;;5052490;28;20484;-65
2022/01/26 19:11:25;;;;;;;10.10;5.05;;;;;;;;;;5051080;28;20025;-64
2022/01/26 19:13:51;;;;;;;8.23;4.82;;;;;;;;;;5052619;28;20118;-65
2022/01/26 19:19:37;;;;;;;9.52;4.75;;;;;;;;;;5060591;28;20471;-65
2022/01/26 19:27:37;;;;;;;7.03;4.10;;;;;;;;;;5072501;28;20025;-64
2022/01/26 19:40:06;;;;;;;7.03;3.83;;;;;;;;;;5072393;28;20055;-64
2022/01/26 19:44:01;;;;;;;7.43;4.55;;;;;;;;;;5072112;28;20122;-65
2022/01/26 19:46:32;;;;;;;7.70;4.50;;;;;;;;;;5072007;28;20034;-64
2022/01/26 19:54:18;;;;;;;8.07;4.47;;;;;;;;;;5071704;28;20029;-65
2022/01/26 19:56:44;;;;;;;8.05;4.80;;;;;;;;;;5071673;28;20040;-65
2022/01/26 19:59:11;;;;;;;7.05;4.15;;;;;;;;;;5053210;28;20104;-65
2022/01/26 20:01:37;;;;;;;7.40;4.55;;;;;;;;;;5051613;28;20021;-64
2022/01/26 20:04:03;;;;;;;7.10;4.32;;;;;;;;;;5051461;28;20021;-67
2022/01/26 20:06:29;;;;;;;7.00;3.95;;;;;;;;;;5051464;28;20108;-64
2022/01/26 20:09:07;;;;;;;6.40;3.72;;;;;;;;;;5049995;28;20511;-64
2022/01/26 20:11:44;;;;;;;6.55;4.00;;;;;;;;;;5051671;28;20070;-64
2022/01/26 20:14:11;;;;;;;10.68;4.72;;;;;;;;;;5051574;28;20027;-65
2022/01/26 20:16:37;;;;;;;7.85;4.57;;;;;;;;;;5051588;28;20102;-64
2022/01/26 20:19:04;;;;;;;8.60;4.40;;;;;;;;;;5051444;28;20079;-64
2022/01/26 20:21:30;;;;;;;5.97;3.80;;;;;;;;;;5051395;28;20487;-64
2022/01/26 20:23:56;;;;;;;6.70;3.92;;;;;;;;;;5050905;28;20024;-64
2022/01/26 20:26:23;;;;;;;7.38;4.45;;;;;;;;;;5051129;28;20529;-64
2022/01/26 20:28:49;;;;;;;8.48;4.60;;;;;;;;;;5050885;28;20435;-67
2022/01/26 20:31:21;;;;;;;12.07;4.82;;;;;;;;;;5043134;28;20066;-67
2022/01/26 20:33:48;;;;;;;14.02;4.43;;;;;;;;;;5031215;28;20040;-67
2022/01/26 20:36:15;;;;;;;10.93;4.15;;;;;;;;;;5031265;28;20152;-68
2022/01/26 20:38:41;;;;;;;7.10;3.95;;;;;;;;;;5030985;28;20063;-67
2022/01/26 20:41:07;;;;;;;11.30;4.10;;;;;;;;;;5030817;28;20044;-67
2022/01/26 20:43:34;;;;;;;11.90;4.90;;;;;;;;;;5031290;28;20017;-67
2022/01/26 20:46:05;;;;;;;10.73;4.38;;;;;;;;;;5031156;28;20026;-67
2022/01/26 20:48:32;;;;;;;8.38;4.15;;;;;;;;;;5031001;28;20025;-67
2022/01/26 20:50:59;;;;;;;13.27;4.32;;;;;;;;;;5030979;28;20029;-67
2022/01/26 20:53:25;;;;;;;8.05;4.20;;;;;;;;;;5031259;28;20022;-67
2022/01/26 20:55:51;;;;;;;14.38;3.90;;;;;;;;;;5031089;28;20026;-67
2022/01/26 20:58:17;;;;;;;12.25;4.13;;;;;;;;;;5040432;28;20091;-66
2022/01/26 21:00:43;;;;;;;8.70;3.88;;;;;;;;;;5050755;28;20033;-68
2022/01/26 21:03:13;;;;;;;7.72;3.70;;;;;;;;;;5050751;28;20100;-67
2022/01/26 21:05:39;;;;;;;7.65;3.92;;;;;;;;;;5050939;28;20025;-67
2022/01/26 21:08:05;;;;;;;8.57;4.15;;;;;;;;;;5049692;28;20071;-67
2022/01/26 21:10:31;;;;;;;7.30;3.95;;;;;;;;;;5050997;28;20086;-66
2022/01/26 21:12:57;;;;;;;7.07;3.92;;;;;;;;;;5050227;28;20025;-67
2022/01/26 21:15:23;;;;;;;7.15;3.85;;;;;;;;;;5049166;28;20043;-68
2022/01/26 21:17:50;;;;;;;8.65;4.18;;;;;;;;;;5050566;28;20033;-68
2022/01/26 21:20:17;;;;;;;6.57;3.40;;;;;;;;;;5050543;28;20048;-68
2022/01/26 21:22:44;;;;;;;8.95;3.78;;;;;;;;;;5050832;28;20100;-68
2022/01/26 21:25:10;;;;;;;6.45;3.58;;;;;;;;;;5050524;28;20104;-68
2022/01/26 21:27:36;;;;;;;6.75;4.00;;;;;;;;;;5050500;28;20025;-68
2022/01/26 21:30:03;;;;;;;6.97;3.53;;;;;;;;;;5049000;28;20063;-68
2022/01/26 21:32:31;;;;;;;7.47;3.70;;;;;;;;;;5050289;28;20025;-67
2022/01/26 21:34:58;;;;;;;6.90;3.90;;;;;;;;;;5051611;28;20049;-67
2022/01/26 21:37:25;;;;;;;6.78;3.70;;;;;;;;;;5054411;28;20021;-68
2022/01/26 21:39:51;;;;;;;8.35;4.15;;;;;;;;;;5052767;28;20058;-68
2022/01/26 21:42:18;;;;;;;6.57;3.88;;;;;;;;;;5052922;28;20085;-68